Seaway II — ZMR3466 — position and weather

sailwx.info

Track history (hours):
 
Tides and Currents Weather Stations Pressure Air Temp Water Temp Dewpoint Dewpoint Depression Visibility Wind Speed Wind Dir Waves Ship Positions

Seaway II

Last reported at 2014-Oct-22 09:29 UTC. Time now 2014-Oct-22 09:46 UTC.
Position S 36°53' E 174°54'.

Length 37 m.

Type: Passenger vessel. MMSI: 512001026.

Date/timePositionNaut miles runAvg speedWind from/ knotsBaromVisibWave heightAir tempDewpointWater temp
2014-Oct-22 09:29S 36°53' E 174°54'0 0.0
2014-Oct-22 08:29S 36°53' E 174°54'0 0.0
2014-Oct-22 07:32S 36°53' E 174°54'0 0.0
2014-Oct-22 06:32S 36°53' E 174°54'1 1.3
2014-Oct-22 05:33S 36°52' E 174°54'4 4.4
2014-Oct-22 04:33S 36°50' E 174°59'4 4.3
2014-Oct-22 03:32S 36°51' E 174°53'4 3.9
2014-Oct-22 02:33S 36°50' E 174°58'4 4.1
2014-Oct-22 01:28S 36°53' E 174°54'4 2.2
2014-Oct-21 23:33S 36°50' E 174°58'4 4.2
2014-Oct-21 22:33S 36°53' E 174°54'3 1.4
2014-Oct-21 20:33S 36°50' E 174°56'1 0.8
2014-Oct-21 19:24S 36°50' E 174°56'1 0.9
2014-Oct-21 18:33S 36°50' E 174°57'3 2.8
2014-Oct-21 17:32S 36°51' E 174°54'3 2.7
2014-Oct-21 16:33S 36°50' E 174°57'4 3.7
2014-Oct-21 15:31S 36°53' E 174°54'0 0.0
2014-Oct-21 10:33S 36°53' E 174°54'0 0.0
2014-Oct-21 09:33S 36°53' E 174°54'0 0.0
2014-Oct-21 08:33S 36°53' E 174°54'0 0.0
2014-Oct-21 07:33S 36°53' E 174°54'0 0.0
2014-Oct-21 06:33S 36°53' E 174°54'2 1.6
2014-Oct-21 05:33S 36°51' E 174°53'5 4.6
2014-Oct-21 04:33S 36°50' E 174°59'5 4.7
2014-Oct-21 03:28S 36°53' E 174°54'0 0.0
2014-Oct-21 02:28S 36°53' E 174°54'0 0.4
2014-Oct-21 01:16S 36°52' E 174°54'3 1.7
2014-Oct-20 23:33S 36°50' E 174°56'3 2.0
2014-Oct-20 22:13S 36°52' E 174°54'2 1.2
2014-Oct-20 20:30S 36°50' E 174°56'2 1.8
2014-Oct-20 19:33S 36°51' E 174°54'3 3.0
2014-Oct-20 18:33S 36°50' E 174°57'1 0.4
2014-Oct-20 16:33S 36°50' E 174°58'4 4.0
2014-Oct-20 15:26S 36°53' E 174°54'0 0.0
2014-Oct-20 14:32S 36°53' E 174°54'0 0.0
2014-Oct-20 12:14S 36°53' E 174°54'0 0.0
2014-Oct-20 10:32S 36°53' E 174°54'0 0.0
2014-Oct-20 09:32S 36°53' E 174°54'0 0.0
2014-Oct-20 08:08S 36°53' E 174°54'1 0.5
2014-Oct-20 05:33S 36°51' E 174°54'4 3.9
2014-Oct-20 04:33S 36°50' E 174°58'4 3.4
2014-Oct-20 03:17S 36°53' E 174°54'4 0.5
2014-Oct-19 18:32S 36°50' E 174°58'4 0.3
2014-Oct-19 06:13S 36°52' E 174°54'3 1.0
2014-Oct-19 03:33S 36°49' E 174°54'0 0.1
2014-Oct-19 00:32S 36°49' E 174°54'5 1.6
2014-Oct-18 21:27S 36°49' E 175°00'8 0.5
2014-Oct-18 05:08S 36°50' E 174°50'3 1.5
2014-Oct-18 03:30S 36°49' E 174°53'6 5.3
2014-Oct-18 02:24S 36°50' E 174°46'5 2.8
2014-Oct-18 00:27S 36°49' E 174°53'7 0.4
2014-Oct-17 07:24S 36°49' E 175°01'3 0.9
2014-Oct-17 04:32S 36°50' E 174°58'5 2.1
2014-Oct-17 02:23S 36°53' E 174°54'0 0.0
2014-Oct-17 01:29S 36°53' E 174°54'0 0.0
2014-Oct-16 23:33S 36°53' E 174°54'0 0.0
2014-Oct-16 22:33S 36°53' E 174°54'0 0.0
2014-Oct-16 21:33S 36°53' E 174°54'3 0.1
2014-Oct-16 01:25S 36°50' E 174°56'2 1.0
2014-Oct-15 23:03S 36°52' E 174°54'1 1.3
2014-Oct-15 22:30S 36°53' E 174°54'0 0.0
2014-Oct-15 21:29S 36°53' E 174°54'0 0.0
2014-Oct-15 20:30S 36°53' E 174°54'2 2.0
2014-Oct-15 19:33S 36°51' E 174°54'2 2.5
2014-Oct-15 18:33S 36°50' E 174°56'1 0.5
2014-Oct-15 16:32S 36°50' E 174°58'4 0.3
2014-Oct-15 03:16S 36°53' E 174°54'1 0.4
2014-Oct-15 01:17S 36°52' E 174°54'3 1.7
2014-Oct-14 23:33S 36°50' E 174°57'4 3.4
2014-Oct-14 22:30S 36°53' E 174°54'7 5.6
2014-Oct-14 21:14S 36°49' E 175°01'7 9.7
2014-Oct-14 20:30S 36°53' E 174°54'7 5.5
2014-Oct-14 19:13S 36°49' E 175°01'7 7.4
2014-Oct-14 18:15S 36°53' E 174°54'4 5.2
2014-Oct-14 17:33S 36°49' E 174°54'3 2.7
2014-Oct-14 16:33S 36°50' E 174°57'4 3.8
2014-Oct-14 15:27S 36°53' E 174°54'0 0.1
2014-Oct-14 14:34S 36°53' E 174°54'0 0.0
2014-Oct-14 13:03S 36°53' E 174°54'0 0.1
2014-Oct-14 12:33S 36°53' E 174°54'0 0.0
2014-Oct-14 11:33S 36°53' E 174°54'0 0.0
2014-Oct-14 10:28S 36°53' E 174°54'0 0.0
2014-Oct-14 09:34S 36°53' E 174°54'0 0.0
2014-Oct-14 08:33S 36°53' E 174°54'0 0.0
2014-Oct-14 07:33S 36°53' E 174°54'0 0.0
2014-Oct-14 06:31S 36°53' E 174°54'2 1.7
2014-Oct-14 05:33S 36°51' E 174°54'4 4.3
2014-Oct-14 04:33S 36°50' E 174°59'5 2.4
2014-Oct-14 02:29S 36°53' E 174°54'0 0.0
2014-Oct-14 01:23S 36°53' E 174°54'911.3
2014-Oct-14 00:33S 36°44' E 174°57'0 0.1
2014-Oct-13 22:33S 36°44' E 174°57'9 9.0
2014-Oct-13 21:32S 36°52' E 174°54'0 0.5
2014-Oct-13 20:32S 36°53' E 174°54'3 3.3
2014-Oct-13 19:33S 36°50' E 174°56'2 1.9
2014-Oct-13 18:33S 36°51' E 174°54'2 2.0
2014-Oct-13 17:29S 36°50' E 174°56'0 0.1
2014-Oct-13 16:33S 36°50' E 174°56'4 3.3
2014-Oct-13 15:27S 36°53' E 174°54'0 0.0
2014-Oct-13 14:09S 36°53' E 174°54'0 0.0
2014-Oct-13 13:33S 36°53' E 174°54'0 0.0
2014-Oct-13 06:18S 36°53' E 174°54'2 2.2
2014-Oct-13 05:33S 36°51' E 174°54'4 4.0
2014-Oct-13 04:33S 36°50' E 174°58'5 4.3
2014-Oct-13 03:29S 36°53' E 174°54'5 2.4
2014-Oct-13 01:33S 36°50' E 174°58'5 1.5
2014-Oct-12 22:32S 36°53' E 174°54'0 0.0
2014-Oct-12 20:33S 36°53' E 174°54'3 2.8
2014-Oct-12 19:31S 36°50' E 174°55'0 0.4
2014-Oct-12 18:33S 36°50' E 174°56'1 0.8
2014-Oct-12 17:31S 36°50' E 174°56'1 1.3
2014-Oct-12 16:33S 36°50' E 174°55'3 0.8
2014-Oct-12 12:24S 36°53' E 174°54'  
Track history (hours):
 
Tides and Currents Weather Stations Pressure Air Temp Water Temp Dewpoint Dewpoint Depression Visibility Wind Speed Wind Dir Waves Ship Positions

Seaway II

Last reported at 2014-Oct-22 09:29 UTC. Time now 2014-Oct-22 09:46 UTC.
Position S 36°53' E 174°54'.

Length 37 m.

Type: Passenger vessel. MMSI: 512001026.

Date/timePositionNaut miles runAvg speedWind from/ knotsBaromVisibWave heightAir tempDewpointWater temp
2014-Oct-22 09:29S 36°53' E 174°54'0 0.0
2014-Oct-22 08:29S 36°53' E 174°54'0 0.0
2014-Oct-22 07:32S 36°53' E 174°54'0 0.0
2014-Oct-22 06:32S 36°53' E 174°54'1 1.3
2014-Oct-22 05:33S 36°52' E 174°54'4 4.4
2014-Oct-22 04:33S 36°50' E 174°59'4 4.3
2014-Oct-22 03:32S 36°51' E 174°53'4 3.9
2014-Oct-22 02:33S 36°50' E 174°58'4 4.1
2014-Oct-22 01:28S 36°53' E 174°54'4 2.2
2014-Oct-21 23:33S 36°50' E 174°58'4 4.2
2014-Oct-21 22:33S 36°53' E 174°54'3 1.4
2014-Oct-21 20:33S 36°50' E 174°56'1 0.8
2014-Oct-21 19:24S 36°50' E 174°56'1 0.9
2014-Oct-21 18:33S 36°50' E 174°57'3 2.8
2014-Oct-21 17:32S 36°51' E 174°54'3 2.7
2014-Oct-21 16:33S 36°50' E 174°57'4 3.7
2014-Oct-21 15:31S 36°53' E 174°54'0 0.0
2014-Oct-21 10:33S 36°53' E 174°54'0 0.0
2014-Oct-21 09:33S 36°53' E 174°54'0 0.0
2014-Oct-21 08:33S 36°53' E 174°54'0 0.0
2014-Oct-21 07:33S 36°53' E 174°54'0 0.0
2014-Oct-21 06:33S 36°53' E 174°54'2 1.6
2014-Oct-21 05:33S 36°51' E 174°53'5 4.6
2014-Oct-21 04:33S 36°50' E 174°59'5 4.7
2014-Oct-21 03:28S 36°53' E 174°54'0 0.0
2014-Oct-21 02:28S 36°53' E 174°54'0 0.4
2014-Oct-21 01:16S 36°52' E 174°54'3 1.7
2014-Oct-20 23:33S 36°50' E 174°56'3 2.0
2014-Oct-20 22:13S 36°52' E 174°54'2 1.2
2014-Oct-20 20:30S 36°50' E 174°56'2 1.8
2014-Oct-20 19:33S 36°51' E 174°54'3 3.0
2014-Oct-20 18:33S 36°50' E 174°57'1 0.4
2014-Oct-20 16:33S 36°50' E 174°58'4 4.0
2014-Oct-20 15:26S 36°53' E 174°54'0 0.0
2014-Oct-20 14:32S 36°53' E 174°54'0 0.0
2014-Oct-20 12:14S 36°53' E 174°54'0 0.0
2014-Oct-20 10:32S 36°53' E 174°54'0 0.0
2014-Oct-20 09:32S 36°53' E 174°54'0 0.0
2014-Oct-20 08:08S 36°53' E 174°54'1 0.5
2014-Oct-20 05:33S 36°51' E 174°54'4 3.9
2014-Oct-20 04:33S 36°50' E 174°58'4 3.4
2014-Oct-20 03:17S 36°53' E 174°54'4 0.5
2014-Oct-19 18:32S 36°50' E 174°58'4 0.3
2014-Oct-19 06:13S 36°52' E 174°54'3 1.0
2014-Oct-19 03:33S 36°49' E 174°54'0 0.1
2014-Oct-19 00:32S 36°49' E 174°54'5 1.6
2014-Oct-18 21:27S 36°49' E 175°00'8 0.5
2014-Oct-18 05:08S 36°50' E 174°50'3 1.5
2014-Oct-18 03:30S 36°49' E 174°53'6 5.3
2014-Oct-18 02:24S 36°50' E 174°46'5 2.8
2014-Oct-18 00:27S 36°49' E 174°53'7 0.4
2014-Oct-17 07:24S 36°49' E 175°01'3 0.9
2014-Oct-17 04:32S 36°50' E 174°58'5 2.1
2014-Oct-17 02:23S 36°53' E 174°54'0 0.0
2014-Oct-17 01:29S 36°53' E 174°54'0 0.0
2014-Oct-16 23:33S 36°53' E 174°54'0 0.0
2014-Oct-16 22:33S 36°53' E 174°54'0 0.0
2014-Oct-16 21:33S 36°53' E 174°54'3 0.1
2014-Oct-16 01:25S 36°50' E 174°56'2 1.0
2014-Oct-15 23:03S 36°52' E 174°54'1 1.3
2014-Oct-15 22:30S 36°53' E 174°54'0 0.0
2014-Oct-15 21:29S 36°53' E 174°54'0 0.0
2014-Oct-15 20:30S 36°53' E 174°54'2 2.0
2014-Oct-15 19:33S 36°51' E 174°54'2 2.5
2014-Oct-15 18:33S 36°50' E 174°56'1 0.5
2014-Oct-15 16:32S 36°50' E 174°58'4 0.3
2014-Oct-15 03:16S 36°53' E 174°54'1 0.4
2014-Oct-15 01:17S 36°52' E 174°54'3 1.7
2014-Oct-14 23:33S 36°50' E 174°57'4 3.4
2014-Oct-14 22:30S 36°53' E 174°54'7 5.6
2014-Oct-14 21:14S 36°49' E 175°01'7 9.7
2014-Oct-14 20:30S 36°53' E 174°54'7 5.5
2014-Oct-14 19:13S 36°49' E 175°01'7 7.4
2014-Oct-14 18:15S 36°53' E 174°54'4 5.2
2014-Oct-14 17:33S 36°49' E 174°54'3 2.7
2014-Oct-14 16:33S 36°50' E 174°57'4 3.8
2014-Oct-14 15:27S 36°53' E 174°54'0 0.1
2014-Oct-14 14:34S 36°53' E 174°54'0 0.0
2014-Oct-14 13:03S 36°53' E 174°54'0 0.1
2014-Oct-14 12:33S 36°53' E 174°54'0 0.0
2014-Oct-14 11:33S 36°53' E 174°54'0 0.0
2014-Oct-14 10:28S 36°53' E 174°54'0 0.0
2014-Oct-14 09:34S 36°53' E 174°54'0 0.0
2014-Oct-14 08:33S 36°53' E 174°54'0 0.0
2014-Oct-14 07:33S 36°53' E 174°54'0 0.0
2014-Oct-14 06:31S 36°53' E 174°54'2 1.7
2014-Oct-14 05:33S 36°51' E 174°54'4 4.3
2014-Oct-14 04:33S 36°50' E 174°59'5 2.4
2014-Oct-14 02:29S 36°53' E 174°54'0 0.0
2014-Oct-14 01:23S 36°53' E 174°54'911.3
2014-Oct-14 00:33S 36°44' E 174°57'0 0.1
2014-Oct-13 22:33S 36°44' E 174°57'9 9.0
2014-Oct-13 21:32S 36°52' E 174°54'0 0.5
2014-Oct-13 20:32S 36°53' E 174°54'3 3.3
2014-Oct-13 19:33S 36°50' E 174°56'2 1.9
2014-Oct-13 18:33S 36°51' E 174°54'2 2.0
2014-Oct-13 17:29S 36°50' E 174°56'0 0.1
2014-Oct-13 16:33S 36°50' E 174°56'4 3.3
2014-Oct-13 15:27S 36°53' E 174°54'0 0.0
2014-Oct-13 14:09S 36°53' E 174°54'0 0.0
2014-Oct-13 13:33S 36°53' E 174°54'0 0.0
2014-Oct-13 06:18S 36°53' E 174°54'2 2.2
2014-Oct-13 05:33S 36°51' E 174°54'4 4.0
2014-Oct-13 04:33S 36°50' E 174°58'5 4.3
2014-Oct-13 03:29S 36°53' E 174°54'5 2.4
2014-Oct-13 01:33S 36°50' E 174°58'5 1.5
2014-Oct-12 22:32S 36°53' E 174°54'0 0.0
2014-Oct-12 20:33S 36°53' E 174°54'3 2.8
2014-Oct-12 19:31S 36°50' E 174°55'0 0.4
2014-Oct-12 18:33S 36°50' E 174°56'1 0.8
2014-Oct-12 17:31S 36°50' E 174°56'1 1.3
2014-Oct-12 16:33S 36°50' E 174°55'3 0.8
2014-Oct-12 12:24S 36°53' E 174°54'  

Dump ship's entire track history